createdAt,value
2022-11-16T00:02:15.096Z,10.30
2022-11-16T00:04:45.266Z,9.90
2022-11-16T00:07:13.910Z,10.95
2022-11-16T00:12:12.752Z,11.48
2022-11-16T00:14:41.226Z,12.57
2022-11-16T00:17:09.745Z,15.50
2022-11-16T00:19:38.301Z,12.88
2022-11-16T00:22:08.132Z,10.70
2022-11-16T00:24:36.727Z,10.75
2022-11-16T00:27:05.254Z,13.05
2022-11-16T00:32:01.967Z,13.00
2022-11-16T00:34:30.533Z,12.27
2022-11-16T00:36:58.946Z,15.55
2022-11-16T00:39:29.191Z,13.20
2022-11-16T00:41:57.716Z,11.48
2022-11-16T00:46:54.547Z,13.27
2022-11-16T00:49:23.238Z,11.05
2022-11-16T00:54:19.995Z,9.00
2022-11-16T00:56:49.876Z,13.77
2022-11-16T00:59:18.412Z,16.15
2022-11-16T01:04:15.232Z,11.82
2022-11-16T01:06:44.699Z,12.65
2022-11-16T01:09:13.107Z,10.60
2022-11-16T01:14:28.619Z,14.30
2022-11-16T01:16:57.125Z,8.48
2022-11-16T01:19:25.577Z,12.10
2022-11-16T01:24:22.626Z,11.77
2022-11-16T01:26:51.040Z,10.27
2022-11-16T01:29:20.163Z,11.77
2022-11-16T01:31:57.243Z,9.30
2022-11-16T01:34:26.147Z,9.13
2022-11-16T01:36:59.659Z,9.77
2022-11-16T01:39:32.329Z,9.20
2022-11-16T01:42:03.510Z,16.25
2022-11-16T01:45:01.685Z,7.50
2022-11-16T01:47:34.041Z,8.18
2022-11-16T01:50:10.436Z,8.95
2022-11-16T01:52:45.186Z,8.33
2022-11-16T01:55:14.955Z,7.88
2022-11-16T01:58:05.492Z,8.32
2022-11-16T02:00:36.298Z,10.00
2022-11-16T02:06:10.198Z,10.52
2022-11-16T02:09:13.900Z,9.07
2022-11-16T02:12:18.862Z,7.30
2022-11-16T02:15:02.968Z,10.60
2022-11-16T02:17:42.880Z,9.02
2022-11-16T02:20:45.259Z,5.90
2022-11-16T02:24:13.537Z,8.48
2022-11-16T02:27:26.464Z,6.53
2022-11-16T02:29:58.596Z,7.25
2022-11-16T02:32:31.558Z,12.10
2022-11-16T02:35:07.069Z,8.57
2022-11-16T02:37:40.287Z,11.68
2022-11-16T02:40:13.504Z,7.07
2022-11-16T02:42:47.157Z,11.70
2022-11-16T02:45:23.053Z,9.48
2022-11-16T02:47:54.860Z,7.03
2022-11-16T02:50:25.907Z,6.10
2022-11-16T02:52:55.877Z,7.63
2022-11-16T02:55:28.788Z,14.25
2022-11-16T02:58:00.854Z,8.90
2022-11-16T03:00:37.501Z,6.35
2022-11-16T03:03:18.273Z,9.25
2022-11-16T03:05:50.739Z,10.25
2022-11-16T03:08:25.484Z,9.45
2022-11-16T03:11:17.229Z,9.65
2022-11-16T03:13:47.436Z,9.75
2022-11-16T03:16:22.568Z,11.70
2022-11-16T03:18:54.649Z,8.32
2022-11-16T03:21:30.222Z,4.85
2022-11-16T03:23:58.875Z,11.88
2022-11-16T03:26:31.240Z,8.45
2022-11-16T03:29:04.221Z,9.32
2022-11-16T03:31:43.467Z,7.05
2022-11-16T03:34:20.315Z,8.88
2022-11-16T03:36:51.284Z,3.60
2022-11-16T03:39:25.708Z,6.10
2022-11-16T03:41:56.075Z,7.90
2022-11-16T03:44:24.569Z,7.28
2022-11-16T03:49:25.602Z,8.48
2022-11-16T03:51:56.115Z,7.20
2022-11-16T03:54:25.099Z,9.57
2022-11-16T03:56:53.579Z,9.25
2022-11-16T03:59:22.786Z,6.43
2022-11-16T04:07:24.269Z,7.15
2022-11-16T04:10:10.381Z,10.07
2022-11-16T04:13:01.491Z,12.65
2022-11-16T04:15:47.365Z,12.32
2022-11-16T04:18:33.900Z,8.90
2022-11-16T04:21:22.041Z,10.10
2022-11-16T04:24:08.269Z,10.50
2022-11-16T04:26:52.651Z,7.53
2022-11-16T04:29:21.663Z,8.40
2022-11-16T04:32:07.946Z,12.18
2022-11-16T04:34:53.678Z,7.28
2022-11-16T04:37:41.023Z,11.25
2022-11-16T04:40:11.124Z,9.27
2022-11-16T04:42:39.813Z,6.03
2022-11-16T04:45:28.868Z,6.53
2022-11-16T04:47:57.452Z,10.15
2022-11-16T04:50:31.083Z,9.10
2022-11-16T04:53:03.492Z,10.27
2022-11-16T04:55:34.153Z,10.60
2022-11-16T04:58:03.439Z,10.13
2022-11-16T05:00:32.171Z,10.70
2022-11-16T05:03:02.026Z,8.68
2022-11-16T05:05:31.476Z,10.48
2022-11-16T05:08:02.946Z,10.55
2022-11-16T05:10:33.447Z,13.88
2022-11-16T05:13:02.671Z,7.10
2022-11-16T05:15:31.191Z,10.15
2022-11-16T05:18:01.407Z,11.02
2022-11-16T05:20:48.816Z,12.60
2022-11-16T05:23:36.478Z,10.40
2022-11-16T05:26:10.939Z,10.90
2022-11-16T05:28:40.122Z,10.15
2022-11-16T05:31:10.850Z,10.43
2022-11-16T05:33:39.520Z,14.13
2022-11-16T05:36:09.399Z,7.68
2022-11-16T05:38:39.672Z,9.27
2022-11-16T05:41:08.214Z,10.88
2022-11-16T05:43:37.019Z,3.97
2022-11-16T05:46:19.596Z,13.90
2022-11-16T05:48:48.518Z,11.70
2022-11-16T05:51:17.530Z,7.68
2022-11-16T05:53:49.501Z,12.45
2022-11-16T05:56:22.707Z,12.50
2022-11-16T05:58:53.890Z,10.85
2022-11-16T06:01:22.927Z,10.35
2022-11-16T06:03:52.197Z,11.93
2022-11-16T06:06:21.225Z,8.75
2022-11-16T06:08:52.812Z,11.57
2022-11-16T06:11:26.484Z,9.02
2022-11-16T06:13:56.075Z,8.88
2022-11-16T06:16:24.939Z,9.13
2022-11-16T06:18:53.576Z,9.18
2022-11-16T06:26:20.439Z,13.23
2022-11-16T06:28:49.674Z,11.90
2022-11-16T06:31:19.011Z,6.95
2022-11-16T06:33:47.660Z,11.55
2022-11-16T06:36:21.125Z,10.90
2022-11-16T06:38:51.021Z,18.40
2022-11-16T06:41:23.549Z,11.95
2022-11-16T06:43:52.942Z,15.18
2022-11-16T06:46:26.447Z,11.95
2022-11-16T06:48:55.603Z,12.32
2022-11-16T06:56:23.796Z,11.40
2022-11-16T06:58:57.643Z,11.98
2022-11-16T07:01:28.865Z,9.70
2022-11-16T07:04:03.472Z,11.30
2022-11-16T07:06:33.190Z,9.73
2022-11-16T07:09:01.834Z,9.35
2022-11-16T07:11:35.909Z,17.73
2022-11-16T07:14:05.180Z,13.07
2022-11-16T07:16:35.843Z,12.48
2022-11-16T07:19:05.298Z,13.70
2022-11-16T07:21:36.058Z,10.18
2022-11-16T07:24:09.028Z,9.48
2022-11-16T07:29:14.007Z,12.63
2022-11-16T07:31:48.206Z,11.80
2022-11-16T07:35:31.439Z,11.38
2022-11-16T07:39:13.177Z,11.63
2022-11-16T07:43:06.974Z,10.90
2022-11-16T08:57:28.218Z,10.70
2022-11-16T09:01:24.294Z,9.75
2022-11-16T09:42:04.085Z,12.17
2022-11-16T09:46:26.273Z,12.38
2022-11-16T10:18:41.837Z,5.85
2022-11-16T10:22:16.020Z,2.92
2022-11-16T10:54:38.882Z,8.23
2022-11-16T10:58:30.778Z,3.47
2022-11-16T11:02:22.341Z,6.07
2022-11-16T11:42:35.660Z,8.45
2022-11-16T11:45:10.448Z,7.55
2022-11-16T11:47:59.557Z,9.38
2022-11-16T11:50:49.124Z,10.07
2022-11-16T11:53:38.703Z,13.98
2022-11-16T11:56:08.097Z,14.70
2022-11-16T11:58:41.683Z,5.82
2022-11-16T12:01:44.350Z,8.13
2022-11-16T12:04:37.423Z,8.77
2022-11-16T12:07:12.777Z,6.35
2022-11-16T12:09:48.951Z,7.57
2022-11-16T12:12:30.722Z,12.13
2022-11-16T12:15:17.047Z,7.57
2022-11-16T12:17:55.675Z,7.20
2022-11-16T12:20:36.556Z,9.13
2022-11-16T12:23:43.978Z,7.32
2022-11-16T12:26:21.217Z,9.63
2022-11-16T12:29:04.222Z,7.78
2022-11-16T12:31:49.711Z,6.85
2022-11-16T12:34:31.127Z,6.28
2022-11-16T12:37:09.751Z,8.23
2022-11-16T12:42:39.231Z,8.45
2022-11-16T12:45:33.826Z,8.32
2022-11-16T12:48:19.758Z,9.20
2022-11-16T12:51:02.867Z,9.02
2022-11-16T12:53:59.120Z,7.80
2022-11-16T12:56:42.359Z,6.07
2022-11-16T12:59:28.268Z,8.10
2022-11-16T13:02:04.708Z,6.00
2022-11-16T13:04:41.244Z,6.65
2022-11-16T13:07:16.285Z,7.57
2022-11-16T13:09:48.901Z,6.57
2022-11-16T13:12:23.612Z,8.52
2022-11-16T13:14:57.596Z,8.15
2022-11-16T13:17:29.911Z,8.93
2022-11-16T13:20:18.207Z,8.82
2022-11-16T13:22:54.163Z,9.93
2022-11-16T13:25:31.856Z,4.95
2022-11-16T13:28:10.102Z,10.00
2022-11-16T13:30:47.352Z,7.15
2022-11-16T13:33:31.522Z,7.20
2022-11-16T13:36:36.851Z,5.60
2022-11-16T13:39:06.950Z,12.02
2022-11-16T13:41:38.035Z,10.27
2022-11-16T13:44:23.379Z,9.40
2022-11-16T13:46:56.555Z,19.00
2022-11-16T13:49:31.044Z,12.77
2022-11-16T13:52:22.059Z,11.32
2022-11-16T13:54:54.432Z,8.75
2022-11-16T13:57:26.568Z,10.90
2022-11-16T14:00:10.118Z,15.43
2022-11-16T14:02:40.733Z,11.18
2022-11-16T14:05:17.660Z,11.75
2022-11-16T14:07:50.108Z,11.10
2022-11-16T14:11:07.604Z,12.52
2022-11-16T14:13:40.910Z,12.85
2022-11-16T14:16:47.507Z,16.92
2022-11-16T14:19:52.976Z,13.70
2022-11-16T14:22:46.147Z,14.65
2022-11-16T14:25:31.962Z,8.68
2022-11-16T14:28:18.061Z,10.18
2022-11-16T14:30:57.645Z,12.65
2022-11-16T14:33:32.458Z,8.13
2022-11-16T14:36:03.824Z,10.35
2022-11-16T14:38:34.623Z,16.92
2022-11-16T14:41:07.549Z,10.18
2022-11-16T14:43:42.017Z,8.95
2022-11-16T14:46:21.495Z,11.80
2022-11-16T14:48:50.916Z,8.02
2022-11-16T14:51:24.117Z,9.70
2022-11-16T14:53:56.950Z,5.97
2022-11-16T14:56:26.882Z,8.90
2022-11-16T14:58:57.050Z,7.18
2022-11-16T15:01:28.973Z,3.60
2022-11-16T15:04:02.561Z,9.13
2022-11-16T15:06:34.123Z,12.07
2022-11-16T15:09:05.775Z,8.23
2022-11-16T15:11:58.439Z,8.77
2022-11-16T15:14:30.692Z,5.00
2022-11-16T15:17:01.371Z,7.28
2022-11-16T15:19:32.190Z,4.38
2022-11-16T15:22:02.318Z,10.20
2022-11-16T15:24:32.545Z,7.57
2022-11-16T15:27:13.937Z,7.40
2022-11-16T15:29:42.732Z,5.10
2022-11-16T15:32:16.860Z,4.07
2022-11-16T15:34:49.102Z,12.55
2022-11-16T15:37:28.506Z,6.82
2022-11-16T15:39:57.959Z,9.25
2022-11-16T15:42:29.492Z,7.88
2022-11-16T15:45:01.970Z,12.45
2022-11-16T15:47:41.201Z,9.65
2022-11-16T15:53:35.811Z,10.02
2022-11-16T15:56:07.325Z,12.15
2022-11-16T15:58:40.798Z,7.22
2022-11-16T16:01:10.540Z,8.82
2022-11-16T16:03:39.773Z,11.00
2022-11-16T16:06:13.107Z,9.38
2022-11-16T16:08:41.970Z,8.05
2022-11-16T16:11:28.323Z,6.68
2022-11-16T16:14:03.280Z,7.28
2022-11-16T16:16:36.478Z,6.50
2022-11-16T16:19:25.709Z,7.97
2022-11-16T16:21:54.238Z,6.72
2022-11-16T16:27:11.568Z,6.07
2022-11-16T16:29:43.144Z,10.25
2022-11-16T16:32:22.522Z,3.70
2022-11-16T16:34:52.199Z,9.43
2022-11-16T16:37:21.424Z,7.03
2022-11-16T16:39:50.009Z,8.93
2022-11-16T16:42:19.110Z,9.18
2022-11-16T16:44:49.638Z,8.73
2022-11-16T16:47:20.771Z,4.57
2022-11-16T16:49:49.404Z,6.75
2022-11-16T16:54:46.649Z,7.65
2022-11-16T16:57:16.108Z,4.70
2022-11-16T16:59:45.602Z,4.70
2022-11-16T17:02:16.818Z,5.35
2022-11-16T17:04:46.995Z,9.48
2022-11-16T17:07:16.292Z,3.63
2022-11-16T17:09:44.928Z,5.70
2022-11-16T17:12:13.466Z,9.35
2022-11-16T17:14:42.225Z,9.27
2022-11-16T17:17:10.671Z,6.82
2022-11-16T17:19:45.246Z,8.77
2022-11-16T17:22:14.951Z,7.93
2022-11-16T17:24:43.511Z,9.25
2022-11-16T17:29:40.691Z,10.40
2022-11-16T17:32:09.065Z,8.70
2022-11-16T17:37:10.229Z,6.80
2022-11-16T17:39:39.797Z,10.40
2022-11-16T17:42:08.227Z,10.90
2022-11-16T17:44:40.964Z,9.07
2022-11-16T17:47:09.897Z,11.27
2022-11-16T17:49:38.342Z,7.75
2022-11-16T17:54:43.863Z,8.05
2022-11-16T17:57:12.454Z,7.22
2022-11-16T17:59:40.877Z,7.05
2022-11-16T18:04:39.988Z,14.40
2022-11-16T18:07:08.867Z,13.68
2022-11-16T18:09:38.098Z,12.40
2022-11-16T18:12:08.350Z,11.25
2022-11-16T18:14:36.987Z,10.15
2022-11-16T18:19:33.597Z,9.70
2022-11-16T18:22:02.488Z,9.15
2022-11-16T18:24:32.560Z,9.57
2022-11-16T18:27:01.051Z,9.80
2022-11-16T18:29:30.935Z,9.90
2022-11-16T18:31:59.444Z,9.70
2022-11-16T18:36:56.298Z,7.72
2022-11-16T18:39:24.673Z,10.20
2022-11-16T18:41:54.967Z,12.38
2022-11-16T18:44:24.249Z,9.55
2022-11-16T18:46:54.169Z,13.85
2022-11-16T18:49:23.097Z,10.30
2022-11-16T18:51:51.695Z,8.75
2022-11-16T18:54:20.171Z,14.10
2022-11-16T18:56:49.047Z,6.57
2022-11-16T18:59:17.478Z,9.70
2022-11-16T19:01:45.980Z,10.80
2022-11-16T19:06:46.892Z,6.07
2022-11-16T19:09:15.301Z,11.10
2022-11-16T19:11:43.804Z,11.23
2022-11-16T19:14:12.225Z,8.40
2022-11-16T19:16:48.951Z,7.68
2022-11-16T19:19:21.833Z,14.38
2022-11-16T19:21:52.014Z,13.75
2022-11-16T19:24:20.504Z,10.90
2022-11-16T19:26:48.956Z,6.88
2022-11-16T19:31:45.601Z,6.63
2022-11-16T19:39:13.167Z,7.75
2022-11-16T19:41:41.672Z,11.65
2022-11-16T19:44:10.138Z,10.98
2022-11-16T19:46:38.551Z,9.73
2022-11-16T19:49:08.749Z,13.07
2022-11-16T19:51:37.548Z,10.77
2022-11-16T19:54:09.346Z,12.65
2022-11-16T19:56:37.884Z,8.93
2022-11-16T19:59:06.351Z,10.60
2022-11-16T20:01:34.758Z,10.80
2022-11-16T20:04:05.082Z,11.07
2022-11-16T20:06:35.458Z,12.20
2022-11-16T20:09:08.987Z,12.68
2022-11-16T20:11:39.149Z,13.88
2022-11-16T20:14:09.570Z,12.20
2022-11-16T20:16:39.710Z,14.20
2022-11-16T20:19:08.862Z,15.75
2022-11-16T20:21:38.970Z,11.98
2022-11-16T20:24:12.028Z,16.35
2022-11-16T20:26:43.569Z,13.30
2022-11-16T20:29:13.013Z,15.18
2022-11-16T20:31:42.997Z,15.35
2022-11-16T20:34:14.747Z,13.98
2022-11-16T20:36:45.021Z,14.35
2022-11-16T20:39:17.186Z,15.27
2022-11-16T20:41:45.823Z,12.45
2022-11-16T20:46:46.280Z,11.75
2022-11-16T20:49:14.957Z,12.55
2022-11-16T20:51:43.454Z,12.50
2022-11-16T20:54:11.870Z,15.85
2022-11-16T20:56:41.647Z,17.10
2022-11-16T20:59:11.052Z,17.52
2022-11-16T21:01:41.715Z,14.45
2022-11-16T21:04:10.999Z,16.20
2022-11-16T21:06:42.080Z,15.00
2022-11-16T21:09:12.430Z,15.65
2022-11-16T21:11:56.361Z,16.27
2022-11-16T21:14:24.873Z,20.63
2022-11-16T21:16:53.288Z,16.90
2022-11-16T21:19:21.810Z,13.77
2022-11-16T21:24:18.440Z,17.73
2022-11-16T21:26:48.968Z,19.00
2022-11-16T21:29:17.426Z,18.30
2022-11-16T21:31:45.855Z,13.68
2022-11-16T21:34:14.240Z,18.75
2022-11-16T21:36:42.656Z,18.42
2022-11-16T21:39:11.071Z,23.80
2022-11-16T21:41:39.575Z,17.15
2022-11-16T21:44:09.405Z,19.60
2022-11-16T21:46:37.839Z,17.77
2022-11-16T21:49:07.655Z,16.25
2022-11-16T21:51:36.123Z,14.98
2022-11-16T21:54:04.816Z,14.55
2022-11-16T21:59:01.875Z,13.52
2022-11-16T22:01:51.833Z,25.95
2022-11-16T22:04:38.701Z,22.48
2022-11-16T22:07:24.533Z,21.48
2022-11-16T22:09:53.091Z,13.40
2022-11-16T22:12:21.530Z,14.43
2022-11-16T22:14:50.024Z,23.60
2022-11-16T22:17:19.754Z,17.25
2022-11-16T22:19:48.288Z,24.90
2022-11-16T22:24:45.007Z,30.67
2022-11-16T22:29:41.540Z,29.63
2022-11-16T22:32:09.991Z,33.63
2022-11-16T22:34:39.786Z,23.77
2022-11-16T22:37:08.203Z,25.52
2022-11-16T22:39:38.198Z,26.48
2022-11-16T22:42:08.323Z,24.92
2022-11-16T22:44:36.911Z,19.00
2022-11-16T22:47:05.352Z,17.73
2022-11-16T22:49:33.841Z,17.27
2022-11-16T22:52:03.606Z,13.95
2022-11-16T22:54:34.263Z,21.45
2022-11-16T22:57:03.419Z,24.42
2022-11-16T22:59:31.991Z,15.27
2022-11-16T23:04:29.532Z,23.40
2022-11-16T23:06:58.117Z,18.90
2022-11-16T23:12:13.658Z,24.40
2022-11-16T23:14:59.549Z,17.35
2022-11-16T23:17:28.008Z,16.75
2022-11-16T23:20:17.593Z,22.17
2022-11-16T23:23:03.901Z,16.75
2022-11-16T23:26:05.973Z,18.83
2022-11-16T23:28:34.742Z,20.15
2022-11-16T23:31:03.196Z,24.00
2022-11-16T23:33:44.991Z,20.15
2022-11-16T23:36:13.885Z,14.70
2022-11-16T23:38:42.403Z,20.55
2022-11-16T23:41:29.702Z,18.98
2022-11-16T23:44:00.788Z,21.17
2022-11-16T23:46:30.440Z,17.90
2022-11-16T23:49:01.664Z,17.27
2022-11-16T23:51:32.936Z,22.00
2022-11-16T23:54:01.477Z,17.45
2022-11-16T23:56:31.248Z,20.25
2022-11-16T23:58:59.696Z,17.92
